Time;durP1;ratioP1;P1;durP2;ratioP2;P2;SDS_P1;SDS_P2;PMS_P1;PMS_P2;Temp;Humidity;BMP_temperature;BMP_pressure;BME280_temperature;BME280_humidity;BME280_pressure;Samples;Min_cycle;Max_cycle;Signal;HPM_P1;HPM_P2
2022/12/17 13:06:53;;;;;;;6.22;4.53;;;;;;;5.21;90.68;97526.53;1760028;81;21342;-73
2022/12/17 13:09:27;;;;;;;5.92;4.20;;;;;;;5.24;90.27;97525.15;1779969;80;21036;-73
2022/12/17 13:12:05;;;;;;;6.65;5.20;;;;;;;5.26;90.24;97533.89;1779623;80;21001;-73
2022/12/17 13:14:49;;;;;;;6.55;4.72;;;;;;;5.32;90.62;97537.31;1775685;80;20989;-72
2022/12/17 13:17:27;;;;;;;7.85;5.17;;;;;;;5.38;90.59;97552.54;1746255;81;20973;-72
2022/12/17 13:20:01;;;;;;;7.90;4.72;;;;;;;5.39;89.96;97553.39;1774106;81;20949;-74
2022/12/17 13:22:33;;;;;;;5.67;3.58;;;;;;;5.43;90.08;97556.86;1764460;80;20969;-74
2022/12/17 13:25:21;;;;;;;5.67;3.85;;;;;;;5.40;88.86;97567.83;1780053;81;20937;-73
2022/12/17 13:27:49;;;;;;;7.25;4.10;;;;;;;5.38;89.68;97569.63;1779732;80;20985;-74
2022/12/17 13:30:24;;;;;;;7.37;3.90;;;;;;;5.37;90.01;97579.72;1779956;81;20965;-74
2022/12/17 13:33:25;;;;;;;7.78;4.28;;;;;;;5.37;90.24;97579.72;1765124;81;20981;-73
2022/12/17 13:36:25;;;;;;;5.95;3.90;;;;;;;5.37;90.43;97578.41;1759002;81;21481;-73
2022/12/17 13:38:58;;;;;;;5.15;4.05;;;;;;;5.39;90.36;97598.06;1778668;81;21000;-73
2022/12/17 13:41:30;;;;;;;6.30;4.05;;;;;;;5.38;90.42;97597.66;1776531;81;20946;-73
2022/12/17 13:44:04;;;;;;;6.05;4.78;;;;;;;5.32;90.19;97602.58;1769609;81;21467;-73
2022/12/17 13:46:41;;;;;;;5.97;4.10;;;;;;;5.35;90.33;97609.55;1771983;80;20977;-74
2022/12/17 13:49:21;;;;;;;7.08;4.92;;;;;;;5.31;89.96;97613.95;1768290;81;20981;-73
2022/12/17 13:52:01;;;;;;;6.22;4.78;;;;;;;5.31;89.99;97617.05;1757020;80;21025;-72
2022/12/17 13:54:28;;;;;;;7.62;4.70;;;;;;;5.23;89.00;97621.95;1759299;80;20977;-72
2022/12/17 13:56:54;;;;;;;7.35;5.10;;;;;;;5.14;89.20;97641.34;1762117;80;21626;-73
2022/12/17 13:59:24;;;;;;;7.47;5.67;;;;;;;5.05;88.56;97644.08;1751586;81;20954;-72
2022/12/17 14:01:53;;;;;;;8.28;5.40;;;;;;;4.97;88.84;97648.13;1769400;81;21009;-72
2022/12/17 14:04:27;;;;;;;10.40;6.65;;;;;;;4.90;88.98;97646.45;1766621;81;21102;-73
2022/12/17 14:06:56;;;;;;;;;;;;;;;4.87;89.13;97656.55;1772854;80;21445;-73
2022/12/17 14:09:28;;;;;;;8.48;5.60;;;;;;;4.79;88.93;97670.23;1760462;81;20115;-72
2022/12/17 14:14:48;;;;;;;12.33;6.53;;;;;;;4.58;88.93;97664.34;1759149;81;20996;-72
2022/12/17 14:17:19;;;;;;;12.05;8.05;;;;;;;4.54;89.46;97670.94;1770961;80;20961;-73
2022/12/17 14:19:49;;;;;;;10.72;6.58;;;;;;;4.54;89.66;97677.06;1779886;80;21012;-73
2022/12/17 14:22:21;;;;;;;9.98;6.37;;;;;;;4.49;89.54;97671.00;1775051;80;21000;-77
2022/12/17 14:24:48;;;;;;;16.80;6.92;;;;;;;4.45;89.29;97683.25;1764822;81;20972;-78
2022/12/17 14:27:25;;;;;;;12.28;6.92;;;;;;;4.43;89.52;97696.84;1760568;80;20986;-76
2022/12/17 14:29:52;;;;;;;10.90;6.75;;;;;;;4.39;89.40;97718.75;1772936;81;20980;-76
2022/12/17 14:32:35;;;;;;;12.93;7.60;;;;;;;4.36;89.48;97718.77;1762854;81;20980;-76
2022/12/17 14:35:03;;;;;;;12.07;7.28;;;;;;;4.37;89.73;97721.84;1755252;81;21314;-79
2022/12/17 14:37:30;;;;;;;10.93;7.15;;;;;;;4.34;89.60;97730.61;1755459;81;20989;-77
2022/12/17 14:40:04;;;;;;;13.93;7.35;;;;;;;4.32;89.84;97742.00;1759714;81;20992;-78
2022/12/17 14:42:34;;;;;;;12.33;7.97;;;;;;;4.29;89.83;97741.59;1765460;81;21063;-78
2022/12/17 14:45:11;;;;;;;12.30;7.42;;;;;;;4.26;89.66;97753.41;1760650;80;21024;-77
2022/12/17 14:47:38;;;;;;;15.00;8.15;;;;;;;4.20;89.45;97762.64;1768948;81;20998;-76
2022/12/17 14:50:16;;;;;;;11.12;7.40;;;;;;;4.11;89.24;97767.95;1700096;83;21013;-72
2022/12/17 14:52:51;;;;;;;10.55;7.67;;;;;;;4.08;89.49;97785.89;1704999;82;21052;-74
2022/12/17 14:55:37;;;;;;;11.88;7.60;;;;;;;3.99;89.09;97777.66;1768513;80;21020;-73
2022/12/17 14:58:15;;;;;;;13.08;7.00;;;;;;;3.96;89.33;97777.20;1776030;80;21001;-75
2022/12/17 15:00:52;;;;;;;14.25;7.92;;;;;;;3.91;89.02;97779.45;1778941;81;21008;-74
2022/12/17 15:03:32;;;;;;;12.45;6.37;;;;;;;3.88;89.01;97778.14;1779004;81;21001;-74
2022/12/17 15:06:06;;;;;;;9.78;6.15;;;;;;;3.85;88.95;97780.34;1778981;80;21001;-74
2022/12/17 15:08:37;;;;;;;9.13;5.95;;;;;;;3.78;88.51;97784.75;1778548;81;21484;-74
2022/12/17 15:11:04;;;;;;;12.73;6.55;;;;;;;3.76;89.33;97781.28;1763236;80;21001;-72
2022/12/17 15:13:31;;;;;;;11.70;7.00;;;;;;;3.76;89.37;97794.39;1754345;81;21412;-74
2022/12/17 15:15:58;;;;;;;10.80;6.08;;;;;;;3.81;89.58;97799.59;1762393;81;21353;-74
2022/12/17 15:18:24;;;;;;;8.63;6.08;;;;;;;3.79;89.31;97794.81;1690751;83;21041;-74
2022/12/17 15:20:51;;;;;;;10.18;6.35;;;;;;;3.83;89.66;97800.02;1752459;81;21378;-74
2022/12/17 15:23:21;;;;;;;11.12;6.30;;;;;;;3.87;89.41;97819.24;1748680;81;21627;-74
2022/12/17 15:25:51;;;;;;;9.48;5.80;;;;;;;3.90;89.52;97831.46;1718283;82;21422;-74
2022/12/17 15:28:19;;;;;;;8.93;5.62;;;;;;;3.93;89.88;97824.44;1754505;80;21023;-75
2022/12/17 15:30:48;;;;;;;8.55;6.10;;;;;;;3.91;89.36;97821.40;1754468;81;21459;-75
2022/12/17 15:33:15;;;;;;;9.60;5.67;;;;;;;3.89;89.67;97842.38;1714268;82;20989;-75
2022/12/17 15:35:42;;;;;;;18.20;10.03;;;;;;;3.87;88.58;97840.22;1748660;81;21012;-75
2022/12/17 15:38:11;;;;;;;9.90;6.00;;;;;;;3.85;89.06;97856.38;1715983;82;20993;-74
2022/12/17 15:40:38;;;;;;;8.63;5.72;;;;;;;3.85;88.98;97858.14;1752496;81;20997;-74
2022/12/17 15:43:11;;;;;;;10.53;6.53;;;;;;;3.86;89.49;97876.92;1757621;81;21467;-73
2022/12/17 15:45:45;;;;;;;10.58;6.80;;;;;;;3.90;89.62;97865.55;1768457;80;21393;-73
2022/12/17 15:48:16;;;;;;;11.18;6.83;;;;;;;3.88;89.63;97884.33;1780290;80;20992;-73
2022/12/17 15:50:42;;;;;;;11.57;6.97;;;;;;;3.80;88.49;97883.94;1764172;80;21059;-73
2022/12/17 15:53:09;;;;;;;10.82;6.92;;;;;;;3.75;89.11;97892.69;1769433;81;21389;-73
2022/12/17 15:55:37;;;;;;;10.10;6.97;;;;;;;3.69;88.73;97889.64;1756472;81;20989;-73
2022/12/17 15:58:06;;;;;;;11.50;7.28;;;;;;;3.67;89.03;97896.65;1754956;81;21016;-73
2022/12/17 16:00:33;;;;;;;12.45;7.50;;;;;;;3.63;89.15;97906.70;1749794;81;21016;-73
2022/12/17 16:03:00;;;;;;;13.20;7.92;;;;;;;3.58;89.11;97917.64;1752301;80;21039;-73
2022/12/17 16:05:27;;;;;;;12.58;7.40;;;;;;;3.52;89.29;97919.83;1749224;81;21329;-73
2022/12/17 16:07:57;;;;;;;11.08;7.30;;;;;;;3.48;89.06;97928.14;1757847;81;20970;-74
2022/12/17 16:10:22;;;;;;;14.80;8.43;;;;;;;3.45;89.00;97929.91;1752072;81;21017;-73
2022/12/17 16:12:48;;;;;;;15.63;8.43;;;;;;;3.41;88.67;97930.35;1754289;81;20968;-73
2022/12/17 16:15:15;;;;;;;14.35;8.58;;;;;;;3.36;88.84;97932.96;1750484;81;20989;-74
2022/12/17 16:17:41;;;;;;;15.13;8.83;;;;;;;3.34;88.98;97931.22;1757212;80;21492;-73
2022/12/17 16:20:10;;;;;;;14.58;8.38;;;;;;;3.26;88.93;97927.30;1761847;81;21007;-74
2022/12/17 16:22:36;;;;;;;15.65;8.95;;;;;;;3.28;88.87;97939.52;1753187;80;20985;-74
2022/12/17 16:25:04;;;;;;;15.63;9.33;;;;;;;3.23;88.92;97936.04;1761831;81;21039;-74
2022/12/17 16:27:31;;;;;;;14.35;9.40;;;;;;;3.24;89.16;97946.09;1760768;80;20918;-74
2022/12/17 16:29:57;;;;;;;18.30;9.90;;;;;;;3.24;89.17;97947.41;1766774;81;21000;-74
2022/12/17 16:32:24;;;;;;;17.30;9.38;;;;;;;3.24;89.36;97954.80;1762651;81;20980;-74
2022/12/17 16:34:50;;;;;;;17.77;9.53;;;;;;;3.24;89.41;97959.19;1753925;81;20977;-74
2022/12/17 16:37:17;;;;;;;19.92;10.10;;;;;;;3.25;89.28;97972.29;1750542;81;21436;-74
2022/12/17 16:39:44;;;;;;;17.02;9.45;;;;;;;3.20;89.08;97973.16;1749362;79;21048;-74
2022/12/17 16:42:10;;;;;;;16.50;9.13;;;;;;;3.17;89.08;97969.64;1749706;81;21422;-74
2022/12/17 16:44:37;;;;;;;15.53;8.98;;;;;;;3.16;89.43;97977.53;1717239;82;21044;-74
2022/12/17 16:47:03;;;;;;;15.65;8.73;;;;;;;3.14;89.24;97976.64;1751366;80;21071;-73
2022/12/17 16:49:30;;;;;;;14.55;8.33;;;;;;;3.10;89.16;97972.27;1759120;81;20973;-73
2022/12/17 16:51:56;;;;;;;14.90;7.95;;;;;;;3.09;89.16;97979.27;1716748;82;20961;-73
2022/12/17 16:54:26;;;;;;;14.93;7.92;;;;;;;3.02;88.74;97987.55;1751396;81;21537;-72
2022/12/17 16:56:53;;;;;;;13.80;7.42;;;;;;;2.99;88.73;97981.45;1771077;81;20960;-72
2022/12/17 16:59:20;;;;;;;12.60;6.67;;;;;;;2.90;88.60;97987.52;1772513;81;21095;-72
2022/12/17 17:01:50;;;;;;;14.05;7.87;;;;;;;2.92;88.70;97997.58;1761239;80;21000;-72
2022/12/17 17:04:20;;;;;;;14.68;7.60;;;;;;;2.94;88.78;97998.44;1761762;80;21052;-73
2022/12/17 17:06:53;;;;;;;13.60;7.65;;;;;;;2.97;88.81;97999.77;1751902;81;21004;-68
2022/12/17 17:09:21;;;;;;;13.80;7.65;;;;;;;2.98;88.77;98007.17;1759275;81;21016;-68
2022/12/17 17:11:48;;;;;;;12.45;7.22;;;;;;;2.99;88.88;97999.78;1756142;81;21020;-67
2022/12/17 17:14:15;;;;;;;12.10;6.17;;;;;;;2.99;88.41;98012.41;1753648;81;21012;-68
2022/12/17 17:16:41;;;;;;;12.47;7.10;;;;;;;2.89;87.44;98010.66;1750081;80;20997;-68
2022/12/17 17:19:08;;;;;;;12.20;6.78;;;;;;;2.80;87.49;98015.88;1717805;82;21017;-72
2022/12/17 17:21:41;;;;;;;12.85;7.28;;;;;;;2.74;87.51;98012.83;1754191;81;20988;-75
2022/12/17 17:24:12;;;;;;;12.55;6.92;;;;;;;2.67;87.50;98018.90;1750696;81;21410;-75
2022/12/17 17:26:39;;;;;;;15.13;7.58;;;;;;;2.70;88.38;98016.30;1755490;80;21462;-75
2022/12/17 17:29:06;;;;;;;15.72;7.33;;;;;;;2.75;88.39;98014.57;1750761;81;20977;-75
2022/12/17 17:31:34;;;;;;;32.50;18.23;;;;;;;2.77;88.38;98025.48;1766257;79;21012;-75
2022/12/17 17:34:02;;;;;;;14.63;8.45;;;;;;;2.83;88.69;98026.36;1768674;81;21032;-74
2022/12/17 17:36:32;;;;;;;14.60;8.28;;;;;;;2.85;88.35;98028.11;1767275;81;20977;-75
2022/12/17 17:39:01;;;;;;;16.37;8.48;;;;;;;2.84;88.29;98042.50;1779693;80;21001;-75
2022/12/17 17:41:31;;;;;;;15.08;8.23;;;;;;;2.78;87.14;98043.34;1755913;80;21468;-76
2022/12/17 17:44:07;;;;;;;15.88;8.58;;;;;;;2.71;87.64;98041.17;1747582;81;21008;-75
2022/12/17 17:46:34;;;;;;;15.75;7.87;;;;;;;2.68;87.08;98050.31;1774274;80;21015;-75
2022/12/17 17:49:03;;;;;;;15.40;8.75;;;;;;;2.58;87.02;98043.30;1787293;80;20968;-74
2022/12/17 17:51:36;;;;;;;18.80;9.48;;;;;;;2.48;87.15;98053.73;1768388;80;20977;-75
2022/12/17 17:54:03;;;;;;;13.48;8.45;;;;;;;2.40;87.18;98055.89;1774443;80;21027;-74
2022/12/17 17:56:34;;;;;;;15.38;8.68;;;;;;;2.28;86.76;98052.78;1786432;80;21386;-75
2022/12/17 17:59:11;;;;;;;16.55;9.38;;;;;;;2.21;87.05;98060.58;1788043;80;21378;-74
2022/12/17 18:01:42;;;;;;;17.12;8.38;;;;;;;2.14;87.05;98057.50;1788014;80;21047;-73
2022/12/17 18:04:14;;;;;;;16.45;8.95;;;;;;;2.06;87.70;98069.65;1773031;80;21028;-75
2022/12/17 18:06:42;;;;;;;17.42;9.43;;;;;;;2.00;87.49;98077.46;1783951;80;21382;-76
2022/12/17 18:09:09;;;;;;;18.37;9.53;;;;;;;1.99;87.54;98079.19;1776472;80;21358;-75
2022/12/17 18:11:38;;;;;;;17.37;9.33;;;;;;;1.96;87.59;98080.05;1785232;80;20989;-75
2022/12/17 18:14:07;;;;;;;18.95;9.70;;;;;;;1.95;87.71;98084.84;1775631;80;20972;-73
2022/12/17 18:16:41;;;;;;;16.95;9.60;;;;;;;1.96;87.70;98089.64;1779958;80;21035;-74
2022/12/17 18:19:15;;;;;;;19.10;9.55;;;;;;;1.93;87.46;98091.80;1777022;80;20996;-75
2022/12/17 18:21:41;;;;;;;18.12;10.00;;;;;;;1.89;87.70;98097.88;1778444;80;20989;-75
2022/12/17 18:24:21;;;;;;;18.23;9.95;;;;;;;1.86;87.41;98098.30;1788133;80;21072;-73
2022/12/17 18:26:51;;;;;;;27.80;14.00;;;;;;;1.75;87.21;98100.40;1788317;80;20937;-75
2022/12/17 18:29:27;;;;;;;22.40;11.28;;;;;;;1.76;87.71;98106.48;1787921;80;21040;-74
2022/12/17 18:31:54;;;;;;;17.52;9.78;;;;;;;1.78;87.62;98116.08;1787422;80;20992;-74
2022/12/17 18:34:26;;;;;;;19.05;9.35;;;;;;;1.76;87.32;98129.58;1787057;80;21032;-76
2022/12/17 18:36:53;;;;;;;19.05;9.38;;;;;;;1.74;87.23;98122.59;1783504;80;21041;-74
2022/12/17 18:39:23;;;;;;;18.27;10.45;;;;;;;1.69;87.17;98145.63;1769643;80;21424;-74
2022/12/17 18:44:40;;;;;;;20.68;11.55;;;;;;;1.73;87.06;98169.19;1787797;80;21012;-74
2022/12/17 18:47:09;;;;;;;19.67;10.40;;;;;;;1.67;87.36;98164.77;1785024;80;20972;-74
2022/12/17 18:49:36;;;;;;;20.12;10.10;;;;;;;1.67;87.16;98176.53;1775694;81;21096;-73
2022/12/17 18:52:03;;;;;;;21.65;10.13;;;;;;;1.64;87.25;98178.69;1774604;81;21029;-74
2022/12/17 18:54:31;;;;;;;19.40;10.13;;;;;;;1.61;86.73;98191.70;1775787;80;21366;-75
2022/12/17 18:56:58;;;;;;;22.25;11.57;;;;;;;1.57;86.63;98202.56;1772896;81;21012;-75
2022/12/17 18:59:27;;;;;;;20.80;9.73;;;;;;;1.58;87.25;98202.15;1779849;80;20989;-75
2022/12/17 19:01:57;;;;;;;22.80;11.80;;;;;;;1.57;86.72;98214.73;1779628;81;21017;-75
2022/12/17 19:04:25;;;;;;;23.40;11.68;;;;;;;1.53;86.75;98210.37;1779922;81;21390;-75
2022/12/17 19:06:53;;;;;;;25.08;11.93;;;;;;;1.51;87.18;98220.80;1778603;80;21013;-75
2022/12/17 19:09:24;;;;;;;23.65;11.80;;;;;;;1.53;86.99;98226.05;1777133;80;20977;-75
2022/12/17 19:11:52;;;;;;;26.15;13.22;;;;;;;1.53;87.27;98227.34;1779973;81;21012;-74
2022/12/17 19:14:21;;;;;;;23.15;12.30;;;;;;;1.55;87.17;98233.03;1772939;81;20985;-75
2022/12/17 19:16:49;;;;;;;29.87;13.35;;;;;;;1.52;86.75;98240.83;1764292;80;21061;-75
2022/12/17 19:19:17;;;;;;;27.73;15.60;;;;;;;1.45;86.69;98239.87;1771388;80;21004;-75
2022/12/17 19:21:44;;;;;;;35.98;20.55;;;;;;;1.48;87.20;98247.29;1780958;80;21032;-75
2022/12/17 19:24:17;;;;;;;70.10;34.30;;;;;;;1.47;87.13;98242.52;1779988;80;20973;-75
2022/12/17 19:26:44;;;;;;;27.50;13.60;;;;;;;1.43;86.35;98249.45;1782910;80;20981;-75
2022/12/17 19:29:13;;;;;;;24.92;13.30;;;;;;;1.37;86.38;98240.22;1778803;81;20981;-75
2022/12/17 19:31:41;;;;;;;30.35;14.63;;;;;;;1.34;86.72;98239.31;1774986;80;20985;-75
2022/12/17 19:34:12;;;;;;;28.45;14.15;;;;;;;1.34;86.66;98254.56;1779927;81;21036;-75
2022/12/17 19:36:40;;;;;;;27.80;13.68;;;;;;;1.29;86.39;98258.41;1780041;80;21459;-75
2022/12/17 19:39:11;;;;;;;27.85;14.75;;;;;;;1.25;86.42;98263.14;1779740;80;21465;-75
2022/12/17 19:41:38;;;;;;;32.70;15.13;;;;;;;1.23;86.41;98267.89;1755743;80;21077;-75
2022/12/17 19:44:10;;;;;;;30.25;13.58;;;;;;;1.22;86.60;98272.67;1750626;80;20981;-75
2022/12/17 19:46:37;;;;;;;27.93;13.60;;;;;;;1.18;86.72;98280.91;1760812;80;20991;-75
2022/12/17 19:49:05;;;;;;;27.45;14.03;;;;;;;1.17;86.56;98284.38;1778502;80;20985;-75
2022/12/17 19:51:32;;;;;;;31.17;14.47;;;;;;;1.20;86.75;98278.32;1766712;80;20997;-75
2022/12/17 19:53:59;;;;;;;34.43;15.15;;;;;;;1.20;86.92;98285.70;1769227;81;20953;-76
2022/12/17 19:56:31;;;;;;;34.13;17.95;;;;;;;1.23;86.92;98294.89;1770014;81;20992;-76
2022/12/17 19:59:05;;;;;;;37.55;17.62;;;;;;;1.22;86.71;98299.67;1761315;81;21405;-76
2022/12/17 20:01:38;;;;;;;32.70;14.58;;;;;;;1.16;86.13;98296.55;1780131;80;21374;-76
2022/12/17 20:04:05;;;;;;;33.13;16.65;;;;;;;1.14;86.18;98298.27;1779799;80;21448;-75
2022/12/17 20:06:34;;;;;;;30.00;14.75;;;;;;;1.12;86.30;98296.05;1779865;80;21032;-75
2022/12/17 20:09:03;;;;;;;32.75;15.53;;;;;;;1.11;86.09;98290.80;1779989;81;21335;-75
2022/12/17 20:11:34;;;;;;;36.25;15.98;;;;;;;1.12;85.88;98297.36;1779613;81;21056;-76
2022/12/17 20:14:22;;;;;;;29.92;14.20;;;;;;;1.10;86.21;98313.44;1780065;80;20957;-75
2022/12/17 20:16:58;;;;;;;29.67;15.10;;;;;;;0.92;85.06;98304.48;1753831;80;21017;-76
2022/12/17 20:19:30;;;;;;;33.83;17.07;;;;;;;0.82;85.69;98317.41;1772931;81;20938;-75
2022/12/17 20:22:00;;;;;;;33.75;16.73;;;;;;;0.83;86.23;98317.40;1781927;80;20980;-75
2022/12/17 20:24:27;;;;;;;32.13;15.63;;;;;;;0.83;86.30;98326.98;1779638;80;20993;-76
2022/12/17 20:26:55;;;;;;;37.08;16.37;;;;;;;0.85;86.04;98317.42;1780064;81;20953;-75
2022/12/17 20:29:24;;;;;;;37.75;15.95;;;;;;;0.84;85.95;98323.51;1778565;81;21020;-75
2022/12/17 20:31:52;;;;;;;35.58;16.23;;;;;;;0.79;85.96;98319.09;1709767;84;20958;-75
2022/12/17 20:34:19;;;;;;;36.20;16.57;;;;;;;0.73;85.65;98330.75;1771093;80;21032;-75
2022/12/17 20:36:48;;;;;;;34.60;15.53;;;;;;;0.65;85.81;98330.64;1780322;80;20981;-75
2022/12/17 20:39:15;;;;;;;29.77;14.45;;;;;;;0.62;85.91;98329.27;1776113;81;20985;-76
2022/12/17 20:41:43;;;;;;;33.38;15.75;;;;;;;0.55;84.28;98336.98;1712153;83;21000;-76
2022/12/17 20:44:14;;;;;;;37.88;17.52;;;;;;;0.43;85.37;98346.77;1774779;80;20954;-75
2022/12/17 20:46:42;;;;;;;35.90;17.17;;;;;;;0.46;85.80;98349.45;1772463;81;20950;-75
2022/12/17 20:49:13;;;;;;;38.00;17.10;;;;;;;0.47;85.82;98366.84;1716715;83;21441;-75
2022/12/17 20:51:40;;;;;;;38.60;17.32;;;;;;;0.49;86.18;98367.73;1787877;80;21028;-75
2022/12/17 20:54:07;;;;;;;36.70;16.65;;;;;;;0.48;86.23;98372.09;1787691;80;20996;-75
2022/12/17 20:56:34;;;;;;;35.83;15.95;;;;;;;0.49;86.13;98372.53;1788283;80;21027;-75
2022/12/17 20:59:05;;;;;;;33.45;16.70;;;;;;;0.48;85.52;98382.94;1788258;80;20953;-75
2022/12/17 21:01:34;;;;;;;34.58;16.75;;;;;;;0.44;85.94;98386.34;1788298;80;21444;-76
2022/12/17 21:04:02;;;;;;;32.28;16.10;;;;;;;0.39;86.05;98393.68;1788074;80;20991;-75
2022/12/17 21:06:39;;;;;;;31.85;14.60;;;;;;;0.42;86.09;98415.02;1769465;80;20972;-75
2022/12/17 21:09:06;;;;;;;39.08;16.55;;;;;;;0.35;85.40;98413.13;1788412;80;21043;-75
2022/12/17 21:11:36;;;;;;;41.13;17.50;;;;;;;0.33;85.73;98426.14;1788336;80;20981;-75
2022/12/17 21:14:07;;;;;;;31.15;15.48;;;;;;;0.28;85.86;98426.92;1788242;80;21350;-75
2022/12/17 21:16:36;;;;;;;34.83;16.10;;;;;;;0.31;86.30;98434.38;1780477;80;21382;-75
2022/12/17 21:19:05;;;;;;;34.73;15.75;;;;;;;0.38;86.47;98438.83;1787451;80;21063;-75
2022/12/17 21:21:35;;;;;;;34.55;16.65;;;;;;;0.38;86.26;98438.83;1788145;80;21365;-75
2022/12/17 21:24:02;;;;;;;34.65;16.48;;;;;;;0.41;86.11;98439.76;1788435;80;21028;-75
2022/12/17 21:26:32;;;;;;;32.03;15.38;;;;;;;0.42;86.02;98457.16;1778162;80;21048;-75
2022/12/17 21:29:01;;;;;;;34.83;15.50;;;;;;;0.38;85.94;98470.13;1779804;80;21421;-75
2022/12/17 21:31:42;;;;;;;37.10;16.48;;;;;;;0.38;85.46;98459.70;1788259;80;21664;-75
2022/12/17 21:34:17;;;;;;;35.17;16.62;;;;;;;0.35;85.64;98465.28;1779004;80;21013;-75
2022/12/17 21:36:43;;;;;;;35.33;16.57;;;;;;;0.29;85.81;98458.21;1787100;80;20996;-75
2022/12/17 21:39:13;;;;;;;32.98;15.43;;;;;;;0.30;86.29;98461.71;1788431;80;20985;-75
2022/12/17 21:43:00;;;;;;;36.40;17.05;;;;;;;0.31;85.80;98463.05;1788168;80;20981;-75
2022/12/17 21:44:13;;;;;;;36.98;16.65;;;;;;;0.28;86.04;98466.03;1763229;80;20980;-75
2022/12/17 21:46:40;;;;;;;40.05;16.45;;;;;;;0.29;85.77;98461.27;1787460;80;20980;-76
2022/12/17 21:49:06;;;;;;;40.00;17.73;;;;;;;0.21;85.63;98465.03;1762106;80;22197;-75
2022/12/17 21:51:33;;;;;;;36.85;16.90;;;;;;;0.23;85.92;98475.05;1775432;80;21012;-75
2022/12/17 21:54:01;;;;;;;36.23;17.27;;;;;;;0.26;85.88;98482.94;1780380;80;20980;-75
2022/12/17 21:56:29;;;;;;;43.08;18.32;;;;;;;0.26;85.94;98488.16;1779025;80;20996;-75
2022/12/17 21:58:58;;;;;;;36.15;17.05;;;;;;;0.26;85.50;98488.16;1781490;80;20956;-74
2022/12/17 22:01:30;;;;;;;38.63;17.12;;;;;;;0.25;85.51;98480.74;1781061;80;20957;-75
2022/12/17 22:03:59;;;;;;;38.28;17.25;;;;;;;0.25;85.20;98487.70;1779880;81;21052;-76
2022/12/17 22:06:29;;;;;;;39.98;17.27;;;;;;;0.21;85.11;98496.31;1752024;80;20950;-76
2022/12/17 22:08:59;;;;;;;34.88;17.20;;;;;;;0.22;85.38;98502.86;1780040;81;21438;-75
2022/12/17 22:11:27;;;;;;;39.95;16.65;;;;;;;0.23;85.44;98504.61;1779936;80;20981;-75
2022/12/17 22:14:11;;;;;;;38.10;17.98;;;;;;;0.16;84.88;98502.72;1778560;81;21008;-76
2022/12/17 22:16:41;;;;;;;36.60;15.70;;;;;;;0.04;84.84;98512.46;1771218;81;21024;-76
2022/12/17 22:19:19;;;;;;;40.35;17.95;;;;;;;0.03;85.37;98521.58;1769379;81;21438;-76
2022/12/17 22:21:46;;;;;;;37.42;18.20;;;;;;;-0.02;85.30;98518.86;1780021;81;20993;-76
2022/12/17 22:24:20;;;;;;;37.17;16.42;;;;;;;-0.08;85.47;98527.41;1778970;80;20992;-76
2022/12/17 22:26:48;;;;;;;39.23;17.77;;;;;;;-0.05;85.82;98530.50;1770115;81;21052;-76
2022/12/17 22:32:58;;;;;;;41.40;18.52;;;;;;;-0.04;85.70;98539.66;1752455;80;20953;-76
2022/12/17 22:34:29;;;;;;;38.25;16.97;;;;;;;-0.05;85.28;98559.17;1779728;80;21463;-77
2022/12/17 22:36:55;;;;;;;37.03;16.42;;;;;;;-0.07;85.51;98556.97;1779971;81;20941;-77
2022/12/17 22:39:22;;;;;;;37.08;17.37;;;;;;;-0.09;85.28;98562.13;1780151;80;21052;-76
2022/12/17 22:44:33;;;;;;;41.15;17.25;;;;;;;0.00;85.93;98570.61;1763921;81;21024;-76
2022/12/17 22:46:59;;;;;;;36.93;16.87;;;;;;;0.06;86.21;98564.22;1780023;80;20957;-76
2022/12/17 22:49:26;;;;;;;40.73;16.97;;;;;;;0.12;85.75;98564.75;1779579;80;21422;-76
2022/12/17 22:51:52;;;;;;;40.90;17.55;;;;;;;0.11;85.47;98579.94;1776130;80;20981;-76
2022/12/17 22:54:19;;;;;;;36.17;16.82;;;;;;;0.07;85.34;98584.63;1764011;81;21450;-76
2022/12/17 22:56:45;;;;;;;35.30;16.35;;;;;;;0.05;85.23;98578.09;1779834;80;22326;-76
2022/12/17 22:59:17;;;;;;;35.25;17.12;;;;;;;0.04;85.01;98585.88;1779957;81;20950;-76
2022/12/17 23:01:44;;;;;;;46.18;18.07;;;;;;;-0.03;85.20;98579.64;1772432;81;21400;-76
2022/12/17 23:04:13;;;;;;;35.65;17.25;;;;;;;0.03;85.76;98581.52;1719712;82;21021;-75
2022/12/17 23:06:40;;;;;;;37.08;17.50;;;;;;;-0.03;85.15;98587.02;1782454;80;20982;-75
2022/12/17 23:09:07;;;;;;;42.23;18.45;;;;;;;0.00;85.79;98584.94;1780064;81;21063;-75
2022/12/17 23:11:33;;;;;;;37.90;17.60;;;;;;;0.03;85.37;98584.98;1779909;81;21024;-75
2022/12/17 23:14:01;;;;;;;39.80;17.85;;;;;;;0.02;85.49;98591.46;1779819;81;21346;-75
2022/12/17 23:16:27;;;;;;;40.23;17.65;;;;;;;0.00;85.48;98594.05;1772608;80;21016;-75
2022/12/17 23:18:54;;;;;;;36.98;17.00;;;;;;;0.06;85.68;98595.90;1766364;81;21008;-75
2022/12/17 23:21:24;;;;;;;42.27;17.10;;;;;;;0.10;85.79;98596.43;1778980;81;20941;-75
2022/12/17 23:23:53;;;;;;;40.35;17.70;;;;;;;0.13;86.01;98602.58;1774587;80;20992;-75
2022/12/17 23:26:27;;;;;;;38.30;17.95;;;;;;;0.21;85.83;98598.84;1779203;81;20942;-75
2022/12/17 23:28:58;;;;;;;39.78;16.55;;;;;;;0.22;85.64;98599.73;1774915;81;20996;-76
2022/12/17 23:31:27;;;;;;;43.10;17.55;;;;;;;0.17;85.08;98612.64;1779666;81;21029;-75
2022/12/17 23:33:54;;;;;;;36.50;17.35;;;;;;;0.05;85.13;98609.78;1780385;80;21004;-75
2022/12/17 23:36:23;;;;;;;35.52;16.87;;;;;;;0.07;85.63;98612.88;1779899;81;21020;-75
2022/12/17 23:38:51;;;;;;;40.05;17.20;;;;;;;0.10;86.01;98618.17;1775733;81;21418;-76
2022/12/17 23:41:22;;;;;;;43.15;18.12;;;;;;;0.10;85.51;98629.91;1777742;80;21382;-75
2022/12/17 23:43:49;;;;;;;39.53;16.67;;;;;;;0.10;85.83;98631.20;1765695;80;21041;-78
2022/12/17 23:46:19;;;;;;;42.95;17.73;;;;;;;0.15;86.03;98634.31;1753167;80;21391;-79
2022/12/17 23:48:47;;;;;;;41.37;17.32;;;;;;;0.19;86.02;98633.55;1777675;80;21162;-76
2022/12/17 23:51:17;;;;;;;44.45;17.90;;;;;;;0.19;85.54;98639.65;1770457;80;21430;-75
2022/12/17 23:53:44;;;;;;;37.38;17.23;;;;;;;0.09;85.19;98642.45;1767407;80;20992;-73
2022/12/17 23:56:16;;;;;;;39.73;16.45;;;;;;;0.09;85.65;98648.97;1779421;81;21063;-74
2022/12/17 23:58:44;;;;;;;38.28;16.97;;;;;;;0.03;85.09;98655.34;1779651;81;20989;-74
